sensor_id;sensor_type;location;lat;lon;timestamp;pressure;altitude;pressure_sealevel;temperature;humidity
53522;BME280;39398;48.382;9.802;2024-01-07T00:02:29;93072.09;;;0.38;99.08
53522;BME280;39398;48.382;9.802;2024-01-07T00:07:32;93071.47;;;0.35;99.01
53522;BME280;39398;48.382;9.802;2024-01-07T00:12:33;93075.00;;;0.43;98.79
53522;BME280;39398;48.382;9.802;2024-01-07T00:17:35;93077.38;;;0.36;98.96
53522;BME280;39398;48.382;9.802;2024-01-07T00:22:38;93068.91;;;0.35;99.10
53522;BME280;39398;48.382;9.802;2024-01-07T00:27:40;93067.47;;;0.41;98.54
53522;BME280;39398;48.382;9.802;2024-01-07T00:32:41;93071.63;;;0.26;98.69
53522;BME280;39398;48.382;9.802;2024-01-07T00:37:44;93060.13;;;0.30;99.06
53522;BME280;39398;48.382;9.802;2024-01-07T00:42:46;93067.16;;;0.28;99.12
53522;BME280;39398;48.382;9.802;2024-01-07T00:47:48;93061.09;;;0.21;99.85
53522;BME280;39398;48.382;9.802;2024-01-07T00:52:51;93063.63;;;0.21;100.00
53522;BME280;39398;48.382;9.802;2024-01-07T00:57:52;93067.00;;;0.21;100.00
53522;BME280;39398;48.382;9.802;2024-01-07T01:02:54;93064.59;;;0.20;100.00
53522;BME280;39398;48.382;9.802;2024-01-07T01:07:57;93064.28;;;0.23;100.00
53522;BME280;39398;48.382;9.802;2024-01-07T01:12:59;93067.47;;;0.25;100.00
53522;BME280;39398;48.382;9.802;2024-01-07T01:18:01;93071.00;;;0.24;100.00
53522;BME280;39398;48.382;9.802;2024-01-07T01:23:04;93078.34;;;0.27;100.00
53522;BME280;39398;48.382;9.802;2024-01-07T01:28:05;93075.00;;;0.26;100.00
53522;BME280;39398;48.382;9.802;2024-01-07T01:33:07;93077.06;;;0.31;100.00
53522;BME280;39398;48.382;9.802;2024-01-07T01:38:10;93076.75;;;0.34;100.00
53522;BME280;39398;48.382;9.802;2024-01-07T01:43:12;93070.38;;;0.30;100.00
53522;BME280;39398;48.382;9.802;2024-01-07T01:48:13;93072.63;;;0.33;100.00
53522;BME280;39398;48.382;9.802;2024-01-07T01:53:17;93074.81;;;0.36;100.00
53522;BME280;39398;48.382;9.802;2024-01-07T01:58:19;93069.72;;;0.36;100.00
53522;BME280;39398;48.382;9.802;2024-01-07T02:03:22;93061.88;;;0.38;100.00
53522;BME280;39398;48.382;9.802;2024-01-07T02:08:25;93066.84;;;0.39;100.00
53522;BME280;39398;48.382;9.802;2024-01-07T02:13:27;93070.34;;;0.38;100.00
53522;BME280;39398;48.382;9.802;2024-01-07T02:18:28;93065.88;;;0.40;100.00
53522;BME280;39398;48.382;9.802;2024-01-07T02:23:32;93076.25;;;0.39;100.00
53522;BME280;39398;48.382;9.802;2024-01-07T02:28:35;93070.69;;;0.43;100.00
53522;BME280;39398;48.382;9.802;2024-01-07T02:33:37;93074.19;;;0.42;100.00
53522;BME280;39398;48.382;9.802;2024-01-07T02:38:39;93074.34;;;0.49;100.00
53522;BME280;39398;48.382;9.802;2024-01-07T02:43:42;93071.66;;;0.50;100.00
53522;BME280;39398;48.382;9.802;2024-01-07T02:48:43;93072.25;;;0.52;100.00
53522;BME280;39398;48.382;9.802;2024-01-07T02:53:45;93064.59;;;0.52;100.00
53522;BME280;39398;48.382;9.802;2024-01-07T02:58:48;93069.88;;;0.59;100.00
53522;BME280;39398;48.382;9.802;2024-01-07T03:03:50;93075.78;;;0.59;100.00
53522;BME280;39398;48.382;9.802;2024-01-07T03:08:51;93078.34;;;0.59;100.00
53522;BME280;39398;48.382;9.802;2024-01-07T03:13:54;93080.91;;;0.59;100.00
53522;BME280;39398;48.382;9.802;2024-01-07T03:18:56;93080.91;;;0.59;100.00
53522;BME280;39398;48.382;9.802;2024-01-07T03:23:58;93081.84;;;0.58;100.00
53522;BME280;39398;48.382;9.802;2024-01-07T03:29:01;93077.38;;;0.60;99.13
53522;BME280;39398;48.382;9.802;2024-01-07T03:34:02;93076.56;;;0.60;98.97
53522;BME280;39398;48.382;9.802;2024-01-07T03:39:04;93083.94;;;0.55;98.56
53522;BME280;39398;48.382;9.802;2024-01-07T03:44:07;93085.03;;;0.52;98.50
53522;BME280;39398;48.382;9.802;2024-01-07T03:49:09;93083.44;;;0.51;98.32
53522;BME280;39398;48.382;9.802;2024-01-07T03:54:11;93087.31;;;0.47;98.39
53522;BME280;39398;48.382;9.802;2024-01-07T03:59:14;93083.16;;;0.46;98.51
53522;BME280;39398;48.382;9.802;2024-01-07T04:04:15;93077.06;;;0.47;98.97
53522;BME280;39398;48.382;9.802;2024-01-07T04:09:17;93088.41;;;0.45;99.08
53522;BME280;39398;48.382;9.802;2024-01-07T04:14:20;93096.25;;;0.43;99.68
53522;BME280;39398;48.382;9.802;2024-01-07T04:19:21;93087.28;;;0.39;99.91
53522;BME280;39398;48.382;9.802;2024-01-07T04:24:23;93102.00;;;0.37;100.00
53522;BME280;39398;48.382;9.802;2024-01-07T04:29:26;93102.31;;;0.34;100.00
53522;BME280;39398;48.382;9.802;2024-01-07T04:34:27;93094.97;;;0.31;99.89
53522;BME280;39398;48.382;9.802;2024-01-07T04:39:29;93111.59;;;0.27;99.73
53522;BME280;39398;48.382;9.802;2024-01-07T04:44:32;93108.88;;;0.28;99.74
53522;BME280;39398;48.382;9.802;2024-01-07T04:49:34;93107.44;;;0.26;99.89
53522;BME280;39398;48.382;9.802;2024-01-07T04:54:36;93110.94;;;0.25;100.00
53522;BME280;39398;48.382;9.802;2024-01-07T04:59:39;93117.81;;;0.24;100.00
53522;BME280;39398;48.382;9.802;2024-01-07T05:04:41;93122.13;;;0.24;100.00
53522;BME280;39398;48.382;9.802;2024-01-07T05:09:43;93129.78;;;0.16;100.00
53522;BME280;39398;48.382;9.802;2024-01-07T05:14:46;93128.66;;;0.18;100.00
53522;BME280;39398;48.382;9.802;2024-01-07T05:19:47;93139.06;;;0.17;100.00
53522;BME280;39398;48.382;9.802;2024-01-07T05:24:49;93139.06;;;0.17;100.00
53522;BME280;39398;48.382;9.802;2024-01-07T05:29:52;93143.03;;;0.11;100.00
53522;BME280;39398;48.382;9.802;2024-01-07T05:34:54;93136.16;;;0.12;100.00
53522;BME280;39398;48.382;9.802;2024-01-07T05:39:56;93146.38;;;0.12;100.00
53522;BME280;39398;48.382;9.802;2024-01-07T05:44:59;93144.63;;;0.12;100.00
53522;BME280;39398;48.382;9.802;2024-01-07T05:50:01;93146.72;;;0.17;100.00
53522;BME280;39398;48.382;9.802;2024-01-07T05:55:03;93148.94;;;0.20;100.00
53522;BME280;39398;48.382;9.802;2024-01-07T06:00:07;93146.38;;;0.20;100.00
53522;BME280;39398;48.382;9.802;2024-01-07T06:05:09;93148.78;;;0.21;100.00
53522;BME280;39398;48.382;9.802;2024-01-07T06:10:11;93156.94;;;0.25;100.00
53522;BME280;39398;48.382;9.802;2024-01-07T06:15:14;93151.19;;;0.23;100.00
53522;BME280;39398;48.382;9.802;2024-01-07T06:20:15;93161.72;;;0.20;100.00
53522;BME280;39398;48.382;9.802;2024-01-07T06:25:17;93147.19;;;0.20;100.00
53522;BME280;39398;48.382;9.802;2024-01-07T06:30:20;93161.72;;;0.20;100.00
53522;BME280;39398;48.382;9.802;2024-01-07T06:35:22;93160.13;;;0.19;100.00
53522;BME280;39398;48.382;9.802;2024-01-07T06:40:24;93159.81;;;0.22;100.00
53522;BME280;39398;48.382;9.802;2024-01-07T06:45:26;93171.16;;;0.19;100.00
53522;BME280;39398;48.382;9.802;2024-01-07T06:50:28;93174.19;;;0.23;100.00
53522;BME280;39398;48.382;9.802;2024-01-07T06:55:30;93175.16;;;0.22;100.00
53522;BME280;39398;48.382;9.802;2024-01-07T07:00:33;93183.78;;;0.21;100.00
53522;BME280;39398;48.382;9.802;2024-01-07T07:05:34;93175.47;;;0.19;100.00
53522;BME280;39398;48.382;9.802;2024-01-07T07:10:36;93179.63;;;0.20;100.00
53522;BME280;39398;48.382;9.802;2024-01-07T07:15:39;93181.88;;;0.23;100.00
53522;BME280;39398;48.382;9.802;2024-01-07T07:20:41;93192.09;;;0.23;100.00
53522;BME280;39398;48.382;9.802;2024-01-07T07:25:43;93187.78;;;0.23;100.00
53522;BME280;39398;48.382;9.802;2024-01-07T07:30:46;93197.19;;;0.23;100.00
53522;BME280;39398;48.382;9.802;2024-01-07T07:35:52;93193.69;;;0.24;100.00
53522;BME280;39398;48.382;9.802;2024-01-07T07:40:54;93203.91;;;0.24;100.00
53522;BME280;39398;48.382;9.802;2024-01-07T07:45:57;93214.78;;;0.26;100.00
53522;BME280;39398;48.382;9.802;2024-01-07T07:50:58;93228.38;;;0.26;100.00
53522;BME280;39398;48.382;9.802;2024-01-07T07:56:01;93236.38;;;0.31;100.00
53522;BME280;39398;48.382;9.802;2024-01-07T08:01:04;93242.28;;;0.32;100.00
53522;BME280;39398;48.382;9.802;2024-01-07T08:06:06;93249.97;;;0.32;100.00
53522;BME280;39398;48.382;9.802;2024-01-07T08:11:12;93249.47;;;0.28;100.00
53522;BME280;39398;48.382;9.802;2024-01-07T08:16:15;93252.53;;;0.32;100.00
53522;BME280;39398;48.382;9.802;2024-01-07T08:21:17;93254.13;;;0.33;100.00
53522;BME280;39398;48.382;9.802;2024-01-07T08:26:19;93257.47;;;0.33;100.00
53522;BME280;39398;48.382;9.802;2024-01-07T08:31:22;93268.16;;;0.29;100.00
53522;BME280;39398;48.382;9.802;2024-01-07T08:36:24;93260.50;;;0.29;100.00
53522;BME280;39398;48.382;9.802;2024-01-07T08:41:25;93274.72;;;0.31;100.00
53522;BME280;39398;48.382;9.802;2024-01-07T08:46:28;93256.34;;;0.28;100.00
53522;BME280;39398;48.382;9.802;2024-01-07T08:51:30;93274.88;;;0.30;100.00
53522;BME280;39398;48.382;9.802;2024-01-07T08:56:32;93281.59;;;0.31;100.00
53522;BME280;39398;48.382;9.802;2024-01-07T09:01:34;93271.63;;;0.20;96.48
53522;BME280;39398;48.382;9.802;2024-01-07T09:06:36;93279.00;;;0.23;96.41
53522;BME280;39398;48.382;9.802;2024-01-07T09:11:38;93289.50;;;0.12;96.41
53522;BME280;39398;48.382;9.802;2024-01-07T09:16:41;93279.25;;;0.04;96.79
53522;BME280;39398;48.382;9.802;2024-01-07T09:21:42;93309.91;;;0.04;95.89
53522;BME280;39398;48.382;9.802;2024-01-07T09:26:44;93311.63;;;-0.05;95.13
53522;BME280;39398;48.382;9.802;2024-01-07T09:31:47;93322.94;;;-0.08;95.68
53522;BME280;39398;48.382;9.802;2024-01-07T09:36:49;93324.16;;;-0.20;94.73
53522;BME280;39398;48.382;9.802;2024-01-07T09:41:51;93323.44;;;-0.30;92.85
53522;BME280;39398;48.382;9.802;2024-01-07T09:46:55;93320.22;;;-0.40;92.75
53522;BME280;39398;48.382;9.802;2024-01-07T09:51:59;93336.78;;;-0.44;92.20
53522;BME280;39398;48.382;9.802;2024-01-07T09:57:02;93334.56;;;-0.39;93.30
53522;BME280;39398;48.382;9.802;2024-01-07T10:02:05;93334.50;;;-0.47;92.90
53522;BME280;39398;48.382;9.802;2024-01-07T10:07:07;93325.56;;;-0.51;92.55
53522;BME280;39398;48.382;9.802;2024-01-07T10:12:09;93343.72;;;-0.54;93.37
53522;BME280;39398;48.382;9.802;2024-01-07T10:17:15;93340.09;;;-0.52;94.78
53522;BME280;39398;48.382;9.802;2024-01-07T10:22:17;93340.53;;;-0.56;95.53
53522;BME280;39398;48.382;9.802;2024-01-07T10:27:19;93337.97;;;-0.56;96.41
53522;BME280;39398;48.382;9.802;2024-01-07T10:32:25;93338.53;;;-0.62;97.33
53522;BME280;39398;48.382;9.802;2024-01-07T10:37:27;93335.56;;;-0.58;97.26
53522;BME280;39398;48.382;9.802;2024-01-07T10:42:30;93335.72;;;-0.59;97.40
53522;BME280;39398;48.382;9.802;2024-01-07T10:47:34;93331.53;;;-0.60;97.30
53522;BME280;39398;48.382;9.802;2024-01-07T10:52:39;93329.78;;;-0.60;97.14
53522;BME280;39398;48.382;9.802;2024-01-07T10:57:43;93339.16;;;-0.68;95.79
53522;BME280;39398;48.382;9.802;2024-01-07T11:02:53;93337.56;;;-0.69;94.83
53522;BME280;39398;48.382;9.802;2024-01-07T11:08:03;93338.03;;;-0.66;95.07
53522;BME280;39398;48.382;9.802;2024-01-07T11:13:06;93338.97;;;-0.67;94.88
53522;BME280;39398;48.382;9.802;2024-01-07T11:18:16;93343.31;;;-0.67;94.49
53522;BME280;39398;48.382;9.802;2024-01-07T11:23:29;93348.34;;;-0.76;94.71
53522;BME280;39398;48.382;9.802;2024-01-07T11:28:48;93339.75;;;-0.75;95.24
53522;BME280;39398;48.382;9.802;2024-01-07T11:33:52;93341.25;;;-0.82;94.62
53522;BME280;39398;48.382;9.802;2024-01-07T11:38:53;93334.25;;;-0.80;94.17
53522;BME280;39398;48.382;9.802;2024-01-07T11:43:56;93342.16;;;-0.91;93.22
53522;BME280;39398;48.382;9.802;2024-01-07T11:49:01;93342.81;;;-0.89;93.99
53522;BME280;39398;48.382;9.802;2024-01-07T11:54:04;93331.94;;;-0.91;93.29
53522;BME280;39398;48.382;9.802;2024-01-07T11:59:06;93340.53;;;-0.92;93.02
53522;BME280;39398;48.382;9.802;2024-01-07T12:04:09;93348.19;;;-0.92;93.81
53522;BME280;39398;48.382;9.802;2024-01-07T12:09:12;93344.03;;;-0.93;93.49
53522;BME280;39398;48.382;9.802;2024-01-07T12:14:14;93345.56;;;-1.00;93.82
53522;BME280;39398;48.382;9.802;2024-01-07T12:19:17;93339.97;;;-1.03;94.06
53522;BME280;39398;48.382;9.802;2024-01-07T12:24:24;93348.78;;;-0.98;95.19
53522;BME280;39398;48.382;9.802;2024-01-07T12:29:26;93339.16;;;-1.04;94.62
53522;BME280;39398;48.382;9.802;2024-01-07T12:34:29;93355.19;;;-1.12;95.00
53522;BME280;39398;48.382;9.802;2024-01-07T12:39:31;93360.09;;;-1.18;94.02
53522;BME280;39398;48.382;9.802;2024-01-07T12:44:33;93357.28;;;-1.25;94.27
53522;BME280;39398;48.382;9.802;2024-01-07T12:49:36;93356.50;;;-1.25;92.56
53522;BME280;39398;48.382;9.802;2024-01-07T12:54:38;93356.91;;;-1.30;92.34
53522;BME280;39398;48.382;9.802;2024-01-07T12:59:39;93369.53;;;-1.28;92.83
53522;BME280;39398;48.382;9.802;2024-01-07T13:04:42;93372.75;;;-1.26;93.80
53522;BME280;39398;48.382;9.802;2024-01-07T13:09:44;93373.41;;;-1.24;94.64
53522;BME280;39398;48.382;9.802;2024-01-07T13:14:46;93377.84;;;-1.26;94.67
53522;BME280;39398;48.382;9.802;2024-01-07T13:19:48;93394.59;;;-1.24;94.93
53522;BME280;39398;48.382;9.802;2024-01-07T13:24:50;93394.09;;;-1.27;95.75
53522;BME280;39398;48.382;9.802;2024-01-07T13:29:52;93391.16;;;-1.32;94.11
53522;BME280;39398;48.382;9.802;2024-01-07T13:34:55;93404.09;;;-1.44;94.06
53522;BME280;39398;48.382;9.802;2024-01-07T13:39:56;93389.34;;;-1.50;94.07
53522;BME280;39398;48.382;9.802;2024-01-07T13:44:58;93404.97;;;-1.53;94.00
53522;BME280;39398;48.382;9.802;2024-01-07T13:50:01;93397.59;;;-1.56;95.02
53522;BME280;39398;48.382;9.802;2024-01-07T13:55:04;93418.66;;;-1.63;95.20
53522;BME280;39398;48.382;9.802;2024-01-07T14:00:07;93422.22;;;-1.74;94.80
53522;BME280;39398;48.382;9.802;2024-01-07T14:05:10;93429.72;;;-1.72;94.93
53522;BME280;39398;48.382;9.802;2024-01-07T14:10:12;93427.81;;;-1.70;95.74
53522;BME280;39398;48.382;9.802;2024-01-07T14:15:16;93439.66;;;-1.79;95.56
53522;BME280;39398;48.382;9.802;2024-01-07T14:20:19;93442.59;;;-1.84;95.54
53522;BME280;39398;48.382;9.802;2024-01-07T14:25:20;93450.41;;;-1.85;95.62
53522;BME280;39398;48.382;9.802;2024-01-07T14:30:22;93451.84;;;-1.83;96.04
53522;BME280;39398;48.382;9.802;2024-01-07T14:35:25;93468.38;;;-1.87;95.72
53522;BME280;39398;48.382;9.802;2024-01-07T14:40:26;93472.13;;;-1.91;94.77
53522;BME280;39398;48.382;9.802;2024-01-07T14:45:28;93481.53;;;-1.91;94.84
53522;BME280;39398;48.382;9.802;2024-01-07T14:50:31;93487.41;;;-2.00;94.57
53522;BME280;39398;48.382;9.802;2024-01-07T14:55:42;93487.72;;;-2.03;94.33
53522;BME280;39398;48.382;9.802;2024-01-07T15:00:43;93494.41;;;-2.02;94.41
53522;BME280;39398;48.382;9.802;2024-01-07T15:05:46;93499.78;;;-2.05;94.46
53522;BME280;39398;48.382;9.802;2024-01-07T15:10:48;93496.56;;;-2.07;94.38
53522;BME280;39398;48.382;9.802;2024-01-07T15:15:50;93503.13;;;-2.15;93.80
53522;BME280;39398;48.382;9.802;2024-01-07T15:20:53;93506.75;;;-2.07;95.04
53522;BME280;39398;48.382;9.802;2024-01-07T15:25:54;93521.22;;;-2.18;95.62
53522;BME280;39398;48.382;9.802;2024-01-07T15:30:56;93503.81;;;-2.41;93.42
53522;BME280;39398;48.382;9.802;2024-01-07T15:36:02;93526.97;;;-2.44;94.04
53522;BME280;39398;48.382;9.802;2024-01-07T15:41:04;93528.16;;;-2.49;92.90
53522;BME280;39398;48.382;9.802;2024-01-07T15:46:05;93530.59;;;-2.47;93.26
53522;BME280;39398;48.382;9.802;2024-01-07T15:51:08;93541.03;;;-2.50;93.83
53522;BME280;39398;48.382;9.802;2024-01-07T15:56:10;93552.69;;;-2.57;92.57
53522;BME280;39398;48.382;9.802;2024-01-07T16:01:12;93549.59;;;-2.51;92.64
53522;BME280;39398;48.382;9.802;2024-01-07T16:06:15;93560.88;;;-2.54;92.77
53522;BME280;39398;48.382;9.802;2024-01-07T16:11:16;93563.91;;;-2.60;92.03
53522;BME280;39398;48.382;9.802;2024-01-07T16:16:18;93572.38;;;-2.59;92.92
53522;BME280;39398;48.382;9.802;2024-01-07T16:21:21;93578.75;;;-2.65;91.03
53522;BME280;39398;48.382;9.802;2024-01-07T16:26:22;93577.97;;;-2.65;92.31
53522;BME280;39398;48.382;9.802;2024-01-07T16:31:24;93586.81;;;-2.69;92.29
53522;BME280;39398;48.382;9.802;2024-01-07T16:36:27;93585.19;;;-2.70;92.14
53522;BME280;39398;48.382;9.802;2024-01-07T16:41:29;93594.69;;;-2.72;92.77
53522;BME280;39398;48.382;9.802;2024-01-07T16:46:31;93595.38;;;-2.70;92.93
53522;BME280;39398;48.382;9.802;2024-01-07T16:51:33;93602.88;;;-2.69;93.23
53522;BME280;39398;48.382;9.802;2024-01-07T16:56:35;93619.22;;;-2.71;93.45
53522;BME280;39398;48.382;9.802;2024-01-07T17:01:37;93617.59;;;-2.72;93.27
53522;BME280;39398;48.382;9.802;2024-01-07T17:06:40;93616.22;;;-2.76;93.07
53522;BME280;39398;48.382;9.802;2024-01-07T17:11:42;93627.59;;;-2.81;92.31
53522;BME280;39398;48.382;9.802;2024-01-07T17:16:44;93635.75;;;-2.87;90.99
53522;BME280;39398;48.382;9.802;2024-01-07T17:21:48;93632.09;;;-2.94;90.97
53522;BME280;39398;48.382;9.802;2024-01-07T17:26:49;93637.06;;;-2.92;90.96
53522;BME280;39398;48.382;9.802;2024-01-07T17:31:51;93646.44;;;-2.93;91.71
53522;BME280;39398;48.382;9.802;2024-01-07T17:36:55;93636.34;;;-3.04;89.61
53522;BME280;39398;48.382;9.802;2024-01-07T17:41:56;93640.63;;;-3.04;90.62
53522;BME280;39398;48.382;9.802;2024-01-07T17:46:58;93650.25;;;-3.08;90.55
53522;BME280;39398;48.382;9.802;2024-01-07T17:52:02;93642.59;;;-3.08;90.48
53522;BME280;39398;48.382;9.802;2024-01-07T17:57:04;93649.31;;;-3.07;90.68
53522;BME280;39398;48.382;9.802;2024-01-07T18:02:06;93651.84;;;-3.07;91.16
53522;BME280;39398;48.382;9.802;2024-01-07T18:07:09;93658.53;;;-3.06;91.67
53522;BME280;39398;48.382;9.802;2024-01-07T18:12:12;93664.56;;;-3.07;90.97
53522;BME280;39398;48.382;9.802;2024-01-07T18:17:13;93659.47;;;-3.07;92.16
53522;BME280;39398;48.382;9.802;2024-01-07T18:22:16;93659.03;;;-3.12;92.11
53522;BME280;39398;48.382;9.802;2024-01-07T18:27:18;93680.56;;;-3.16;91.77
53522;BME280;39398;48.382;9.802;2024-01-07T18:32:19;93674.38;;;-3.23;91.53
53522;BME280;39398;48.382;9.802;2024-01-07T18:37:22;93678.56;;;-3.33;90.78
53522;BME280;39398;48.382;9.802;2024-01-07T18:42:24;93686.81;;;-3.41;90.52
53522;BME280;39398;48.382;9.802;2024-01-07T18:47:26;93693.81;;;-3.54;89.19
53522;BME280;39398;48.382;9.802;2024-01-07T18:52:29;93701.13;;;-3.61;88.57
53522;BME280;39398;48.382;9.802;2024-01-07T18:57:30;93704.34;;;-3.59;88.69
53522;BME280;39398;48.382;9.802;2024-01-07T19:02:32;93710.47;;;-3.61;88.83
53522;BME280;39398;48.382;9.802;2024-01-07T19:07:35;93722.59;;;-3.65;89.13
53522;BME280;39398;48.382;9.802;2024-01-07T19:12:36;93722.84;;;-3.68;88.62
53522;BME280;39398;48.382;9.802;2024-01-07T19:17:38;93731.84;;;-3.64;88.71
53522;BME280;39398;48.382;9.802;2024-01-07T19:22:41;93741.19;;;-3.64;88.17
53522;BME280;39398;48.382;9.802;2024-01-07T19:27:43;93743.03;;;-3.66;87.48
53522;BME280;39398;48.382;9.802;2024-01-07T19:32:45;93730.91;;;-3.63;87.79
53522;BME280;39398;48.382;9.802;2024-01-07T19:37:50;93746.03;;;-3.61;88.02
53522;BME280;39398;48.382;9.802;2024-01-07T19:42:52;93751.94;;;-3.61;88.04
53522;BME280;39398;48.382;9.802;2024-01-07T19:47:54;93750.44;;;-3.63;87.06
53522;BME280;39398;48.382;9.802;2024-01-07T19:52:57;93752.41;;;-3.67;86.78
53522;BME280;39398;48.382;9.802;2024-01-07T19:57:58;93759.78;;;-3.64;87.55
53522;BME280;39398;48.382;9.802;2024-01-07T20:03:00;93762.69;;;-3.68;87.01
53522;BME280;39398;48.382;9.802;2024-01-07T20:08:03;93764.44;;;-3.69;87.79
53522;BME280;39398;48.382;9.802;2024-01-07T20:13:05;93764.09;;;-3.75;88.19
53522;BME280;39398;48.382;9.802;2024-01-07T20:18:06;93768.97;;;-3.95;89.04
53522;BME280;39398;48.382;9.802;2024-01-07T20:23:10;93783.63;;;-3.98;87.70
53522;BME280;39398;48.382;9.802;2024-01-07T20:28:11;93776.84;;;-3.98;88.97
53522;BME280;39398;48.382;9.802;2024-01-07T20:33:13;93789.22;;;-4.04;89.68
53522;BME280;39398;48.382;9.802;2024-01-07T20:38:16;93792.09;;;-4.09;88.90
53522;BME280;39398;48.382;9.802;2024-01-07T20:43:18;93784.00;;;-4.14;88.93
53522;BME280;39398;48.382;9.802;2024-01-07T20:48:19;93784.13;;;-4.15;88.47
53522;BME280;39398;48.382;9.802;2024-01-07T20:53:22;93782.06;;;-4.22;88.40
53522;BME280;39398;48.382;9.802;2024-01-07T20:58:24;93799.13;;;-4.24;88.31
53522;BME280;39398;48.382;9.802;2024-01-07T21:03:26;93803.28;;;-4.34;87.68
53522;BME280;39398;48.382;9.802;2024-01-07T21:08:29;93798.19;;;-4.34;88.46
53522;BME280;39398;48.382;9.802;2024-01-07T21:13:31;93797.75;;;-4.39;88.10
53522;BME280;39398;48.382;9.802;2024-01-07T21:18:32;93798.56;;;-4.38;87.89
53522;BME280;39398;48.382;9.802;2024-01-07T21:23:36;93799.59;;;-4.41;87.20
53522;BME280;39398;48.382;9.802;2024-01-07T21:28:37;93799.13;;;-4.46;86.81
53522;BME280;39398;48.382;9.802;2024-01-07T21:33:39;93794.25;;;-4.49;87.06
53522;BME280;39398;48.382;9.802;2024-01-07T21:38:42;93808.34;;;-4.45;88.29
53522;BME280;39398;48.382;9.802;2024-01-07T21:43:44;93811.31;;;-4.51;87.40
53522;BME280;39398;48.382;9.802;2024-01-07T21:48:46;93816.66;;;-4.54;86.94
53522;BME280;39398;48.382;9.802;2024-01-07T21:53:49;93823.34;;;-4.53;87.87
53522;BME280;39398;48.382;9.802;2024-01-07T21:58:50;93829.44;;;-4.55;87.76
53522;BME280;39398;48.382;9.802;2024-01-07T22:03:52;93834.75;;;-4.59;87.87
53522;BME280;39398;48.382;9.802;2024-01-07T22:08:55;93838.09;;;-4.58;88.43
53522;BME280;39398;48.382;9.802;2024-01-07T22:13:57;93849.59;;;-4.65;88.32
53522;BME280;39398;48.382;9.802;2024-01-07T22:18:58;93853.28;;;-4.69;87.71
53522;BME280;39398;48.382;9.802;2024-01-07T22:24:02;93857.19;;;-4.76;87.10
53522;BME280;39398;48.382;9.802;2024-01-07T22:29:03;93855.34;;;-4.74;88.20
53522;BME280;39398;48.382;9.802;2024-01-07T22:34:08;93839.13;;;-4.96;86.72
53522;BME280;39398;48.382;9.802;2024-01-07T22:39:11;93853.75;;;-4.99;86.57
53522;BME280;39398;48.382;9.802;2024-01-07T22:44:13;93853.75;;;-4.99;87.85
53522;BME280;39398;48.382;9.802;2024-01-07T22:49:14;93867.91;;;-5.08;86.67
53522;BME280;39398;48.382;9.802;2024-01-07T22:54:17;93869.63;;;-5.08;87.99
53522;BME280;39398;48.382;9.802;2024-01-07T22:59:19;93874.53;;;-5.18;86.13
53522;BME280;39398;48.382;9.802;2024-01-07T23:04:21;93879.84;;;-5.21;84.76
53522;BME280;39398;48.382;9.802;2024-01-07T23:09:25;93886.53;;;-5.20;86.58
53522;BME280;39398;48.382;9.802;2024-01-07T23:14:27;93884.19;;;-5.23;85.98
53522;BME280;39398;48.382;9.802;2024-01-07T23:19:28;93879.13;;;-5.23;87.06
53522;BME280;39398;48.382;9.802;2024-01-07T23:24:31;93870.44;;;-5.32;85.51
53522;BME280;39398;48.382;9.802;2024-01-07T23:29:33;93875.06;;;-5.49;85.44
53522;BME280;39398;48.382;9.802;2024-01-07T23:34:34;93892.59;;;-5.46;86.29
53522;BME280;39398;48.382;9.802;2024-01-07T23:39:37;93865.47;;;-5.57;86.39
53522;BME280;39398;48.382;9.802;2024-01-07T23:44:39;93878.34;;;-5.60;86.25
53522;BME280;39398;48.382;9.802;2024-01-07T23:49:41;93883.91;;;-5.68;86.16
53522;BME280;39398;48.382;9.802;2024-01-07T23:54:44;93876.44;;;-5.69;86.21
53522;BME280;39398;48.382;9.802;2024-01-07T23:59:45;93881.13;;;-5.76;85.91
